Time;durP1;ratioP1;P1;durP2;ratioP2;P2;SDS_P1;SDS_P2;PMS_P1;PMS_P2;Temp;Humidity;BMP_temperature;BMP_pressure;BME280_temperature;BME280_humidity;BME280_pressure;Samples;Min_cycle;Max_cycle;Signal;HPM_P1;HPM_P2
2022/04/26 03:37:12;;;;;;;28.60;25.70;;;9.90;99.90;;;;;;4927103;29;20612;-72
2022/04/26 03:39:42;;;;;;;26.53;24.13;;;9.90;99.90;;;;;;4934024;29;20174;-72
2022/04/26 03:42:08;;;;;;;30.13;27.57;;;9.90;99.90;;;;;;4935947;29;20219;-72
2022/04/26 03:44:33;;;;;;;30.80;28.17;;;9.90;99.90;;;;;;4935742;29;20199;-72
2022/04/26 03:46:59;;;;;;;31.63;29.07;;;9.90;99.90;;;;;;4934334;29;20214;-72
2022/04/26 03:49:25;;;;;;;33.37;30.57;;;9.90;99.90;;;;;;4934697;29;20257;-73
2022/04/26 03:51:54;;;;;;;29.27;26.80;;;9.90;99.90;;;;;;4932890;29;20305;-72
2022/04/26 03:54:21;;;;;;;30.10;27.47;;;9.90;99.90;;;;;;4901857;29;20591;-73
2022/04/26 03:56:47;;;;;;;30.13;27.23;;;9.90;99.90;;;;;;4897851;29;20555;-73
2022/04/26 03:59:13;;;;;;;31.30;28.67;;;9.90;99.90;;;;;;4908473;29;20187;-73
2022/04/26 04:01:39;;;;;;;26.37;23.77;;;9.90;99.90;;;;;;4916998;29;20185;-72
2022/04/26 04:04:05;;;;;;;29.27;26.47;;;9.90;99.90;;;;;;4916879;29;20699;-73
2022/04/26 04:06:31;;;;;;;30.40;27.73;;;9.80;99.90;;;;;;4915680;29;20186;-73
2022/04/26 04:08:57;;;;;;;22.83;20.63;;;9.80;99.90;;;;;;4915173;29;20359;-73
2022/04/26 04:11:23;;;;;;;23.80;21.33;;;9.80;99.90;;;;;;4922967;29;20274;-73
2022/04/26 04:13:49;;;;;;;37.97;34.87;;;9.80;99.90;;;;;;4916333;29;20219;-73
2022/04/26 04:16:15;;;;;;;31.57;28.80;;;9.80;99.90;;;;;;4916456;29;20190;-72
2022/04/26 04:21:26;;;;;;;27.17;24.57;;;9.80;99.90;;;;;;4916523;29;20194;-74
2022/04/26 04:23:52;;;;;;;25.53;23.13;;;9.90;99.90;;;;;;4916354;29;20633;-73
2022/04/26 04:26:18;;;;;;;24.27;21.90;;;9.90;99.90;;;;;;4915965;29;20207;-72
2022/04/26 04:28:44;;;;;;;30.87;28.07;;;9.90;99.90;;;;;;4916499;29;20226;-72
2022/04/26 04:31:10;;;;;;;26.27;23.77;;;10.00;99.90;;;;;;4916590;29;20560;-72
2022/04/26 04:33:39;;;;;;;53.17;49.17;;;9.90;99.90;;;;;;4930843;29;20203;-72
2022/04/26 04:36:05;;;;;;;48.77;44.97;;;9.90;99.90;;;;;;4931666;29;20191;-72
2022/04/26 04:38:31;;;;;;;57.47;53.10;;;9.80;99.90;;;;;;4917714;29;20189;-72
2022/04/26 04:40:58;;;;;;;141.80;133.00;;;9.90;99.90;;;;;;4916985;29;20225;-73
2022/04/26 04:43:24;;;;;;;65.50;60.77;;;9.80;99.90;;;;;;4916232;29;20296;-72
2022/04/26 04:45:49;;;;;;;50.53;46.60;;;9.80;99.90;;;;;;4916491;29;20571;-73
2022/04/26 04:48:15;;;;;;;47.10;43.13;;;9.80;99.90;;;;;;4915417;29;20179;-73
2022/04/26 04:50:42;;;;;;;56.17;51.77;;;9.70;99.90;;;;;;4915867;29;20270;-73
2022/04/26 04:53:08;;;;;;;43.77;40.33;;;9.70;99.90;;;;;;4914332;29;20210;-73
2022/04/26 04:55:34;;;;;;;28.40;25.90;;;9.70;99.90;;;;;;4914696;29;20261;-73
2022/04/26 04:58:00;;;;;;;57.57;53.60;;;9.60;99.90;;;;;;4915418;29;20312;-73
2022/04/26 05:00:26;;;;;;;80.33;75.47;;;9.60;99.90;;;;;;4914580;29;20194;-73
2022/04/26 05:02:52;;;;;;;95.10;88.97;;;9.50;99.90;;;;;;4914510;29;20207;-71
2022/04/26 05:05:18;;;;;;;76.27;71.27;;;9.50;99.90;;;;;;4915598;29;20237;-75
2022/04/26 05:07:44;;;;;;;46.43;42.93;;;9.50;99.90;;;;;;4915260;29;20239;-73
2022/04/26 05:10:10;;;;;;;34.00;31.50;;;9.50;99.90;;;;;;4915873;29;20183;-73
2022/04/26 05:12:36;;;;;;;44.70;41.33;;;9.50;99.90;;;;;;4914729;29;20187;-73
2022/04/26 05:15:07;;;;;;;26.30;24.23;;;9.50;99.90;;;;;;4916506;29;20270;-73
2022/04/26 05:17:33;;;;;;;50.23;46.90;;;9.40;99.90;;;;;;4915427;29;20187;-73
2022/04/26 05:20:00;;;;;;;55.43;51.50;;;9.40;99.90;;;;;;4915535;29;20189;-73
2022/04/26 05:22:27;;;;;;;27.00;25.00;;;9.50;99.90;;;;;;4915280;29;20590;-73
2022/04/26 05:24:58;;;;;;;35.43;32.83;;;9.40;99.90;;;;;;4915481;29;20286;-73
2022/04/26 05:27:26;;;;;;;43.17;40.47;;;9.50;99.90;;;;;;4915120;29;20183;-73
2022/04/26 05:29:53;;;;;;;42.67;39.90;;;9.50;99.90;;;;;;4914251;29;20549;-73
2022/04/26 05:32:24;;;;;;;35.60;33.17;;;9.50;99.90;;;;;;4915255;29;20273;-73
2022/04/26 05:34:58;;;;;;;30.07;28.03;;;9.60;99.90;;;;;;4915268;29;20267;-74
2022/04/26 05:37:25;;;;;;;28.03;25.93;;;9.70;99.90;;;;;;4914641;29;20193;-73
2022/04/26 05:39:51;;;;;;;23.00;21.27;;;9.70;99.90;;;;;;4915464;29;20199;-74
2022/04/26 05:42:16;;;;;;;26.00;24.20;;;9.60;99.90;;;;;;4915212;29;20215;-74
2022/04/26 05:44:42;;;;;;;28.30;26.30;;;9.70;99.90;;;;;;4913861;29;20762;-73
2022/04/26 05:47:09;;;;;;;36.40;33.87;;;9.80;99.90;;;;;;4915497;29;20303;-74
2022/04/26 05:49:35;;;;;;;38.77;36.27;;;9.90;99.90;;;;;;4929990;29;20651;-74
2022/04/26 05:52:05;;;;;;;38.77;36.40;;;10.00;99.90;;;;;;4915104;29;20183;-74
2022/04/26 05:54:31;;;;;;;29.80;27.77;;;10.00;99.90;;;;;;4915482;29;20226;-74
2022/04/26 05:56:57;;;;;;;15.77;14.57;;;10.10;99.90;;;;;;4917712;29;20674;-74
2022/04/26 05:59:24;;;;;;;25.23;23.40;;;10.10;99.90;;;;;;4931967;29;20246;-74
2022/04/26 06:01:51;;;;;;;17.17;15.70;;;10.10;99.90;;;;;;4935933;29;20191;-74
2022/04/26 06:04:17;;;;;;;15.07;13.80;;;10.10;99.90;;;;;;4914438;29;20567;-73
2022/04/26 06:06:43;;;;;;;12.03;11.20;;;10.20;99.90;;;;;;4932913;29;20674;-72
2022/04/26 06:09:09;;;;;;;16.17;14.93;;;10.30;99.90;;;;;;4917847;29;20192;-73
2022/04/26 06:11:35;;;;;;;17.40;16.03;;;10.30;99.90;;;;;;4916397;29;20604;-74
2022/04/26 06:14:02;;;;;;;17.00;15.73;;;10.20;99.90;;;;;;4930774;29;20230;-74
2022/04/26 06:16:28;;;;;;;18.17;16.93;;;10.30;99.90;;;;;;4915232;29;20206;-73
2022/04/26 06:18:54;;;;;;;18.37;16.97;;;10.20;99.90;;;;;;4929491;29;20241;-73
2022/04/26 06:21:20;;;;;;;17.07;15.93;;;10.20;99.90;;;;;;4913703;29;20226;-74
2022/04/26 06:23:46;;;;;;;30.20;28.33;;;10.30;99.90;;;;;;4913908;29;20246;-75
2022/04/26 06:26:12;;;;;;;39.03;36.77;;;10.30;99.90;;;;;;4913705;29;20243;-75
2022/04/26 06:28:38;;;;;;;33.70;31.70;;;10.30;99.90;;;;;;4913202;29;20185;-74
2022/04/26 06:31:04;;;;;;;31.47;29.67;;;10.30;99.90;;;;;;4914934;29;20670;-72
2022/04/26 06:33:29;;;;;;;37.53;35.40;;;10.30;99.90;;;;;;4914772;29;20218;-73
2022/04/26 06:35:55;;;;;;;19.27;18.07;;;10.20;99.90;;;;;;4929134;29;20191;-73
2022/04/26 06:38:24;;;;;;;27.30;25.70;;;10.10;99.90;;;;;;4929470;29;20195;-73
2022/04/26 06:40:51;;;;;;;39.37;37.07;;;10.20;99.90;;;;;;4929885;29;20195;-73
2022/04/26 06:43:18;;;;;;;34.30;32.10;;;10.10;99.90;;;;;;4914461;29;20215;-73
2022/04/26 06:45:46;;;;;;;24.43;22.83;;;10.20;99.90;;;;;;4914852;29;20187;-72
2022/04/26 06:48:13;;;;;;;34.30;32.20;;;10.30;99.90;;;;;;4914604;29;20640;-73
2022/04/26 06:50:39;;;;;;;49.77;46.83;;;10.40;99.90;;;;;;4914452;29;20183;-73
2022/04/26 06:53:06;;;;;;;37.10;34.83;;;10.50;99.90;;;;;;4914583;29;20569;-73
2022/04/26 06:55:32;;;;;;;19.70;18.37;;;10.50;99.90;;;;;;4913265;29;20194;-73
2022/04/26 06:57:58;;;;;;;19.87;18.57;;;10.40;99.90;;;;;;4914000;29;20191;-72
2022/04/26 07:00:23;;;;;;;17.70;16.40;;;10.40;99.90;;;;;;4913538;29;20659;-73
2022/04/26 07:02:49;;;;;;;12.63;11.53;;;10.40;99.90;;;;;;4913554;29;20741;-73
2022/04/26 07:05:16;;;;;;;13.63;12.53;;;10.50;99.90;;;;;;4914203;29;20282;-73
2022/04/26 07:07:42;;;;;;;17.80;16.53;;;10.40;99.90;;;;;;4914139;29;20187;-73
2022/04/26 07:10:10;;;;;;;27.63;25.63;;;10.50;99.90;;;;;;4915754;29;20183;-73
2022/04/26 07:12:36;;;;;;;27.20;25.50;;;10.50;99.90;;;;;;4916427;29;20187;-73
2022/04/26 07:15:03;;;;;;;26.97;25.17;;;10.50;99.90;;;;;;4917698;29;20230;-73
2022/04/26 07:17:29;;;;;;;23.70;22.20;;;10.40;99.90;;;;;;4916108;29;20223;-73
2022/04/26 07:19:58;;;;;;;24.77;23.17;;;10.40;99.90;;;;;;4915668;29;20214;-73
2022/04/26 07:22:24;;;;;;;26.13;24.40;;;10.40;99.90;;;;;;4917380;29;20310;-74
2022/04/26 07:24:50;;;;;;;24.13;22.53;;;10.30;99.90;;;;;;4931855;29;20718;-73
2022/04/26 07:27:18;;;;;;;29.53;27.53;;;10.30;99.90;;;;;;4917878;29;20187;-73
2022/04/26 07:29:48;;;;;;;25.23;23.53;;;10.30;99.90;;;;;;4917847;29;20179;-72
2022/04/26 07:32:14;;;;;;;27.10;25.40;;;10.30;99.90;;;;;;4917658;29;20644;-73
2022/04/26 07:34:40;;;;;;;24.60;22.90;;;10.30;99.90;;;;;;4917712;29;20218;-72
2022/04/26 07:37:06;;;;;;;25.73;23.93;;;10.40;99.90;;;;;;4917409;29;20183;-73
2022/04/26 07:39:34;;;;;;;25.90;24.20;;;10.40;99.90;;;;;;4932043;29;20233;-73
2022/04/26 07:42:01;;;;;;;21.67;20.20;;;10.30;99.90;;;;;;4932122;29;20194;-73
2022/04/26 07:44:27;;;;;;;19.73;18.40;;;10.30;99.90;;;;;;4919493;29;20286;-72
2022/04/26 07:46:54;;;;;;;22.80;21.20;;;10.20;99.90;;;;;;4919052;29;20694;-73
2022/04/26 07:49:23;;;;;;;21.80;19.90;;;10.10;99.90;;;;;;4932529;29;20190;-73
2022/04/26 07:51:49;;;;;;;20.70;19.10;;;10.00;99.90;;;;;;4917441;29;20187;-73
2022/04/26 07:54:16;;;;;;;23.73;22.00;;;10.10;99.90;;;;;;4932216;29;20675;-73
2022/04/26 07:56:42;;;;;;;18.40;17.13;;;10.20;99.90;;;;;;4931839;29;20541;-73
2022/04/26 07:59:08;;;;;;;23.57;22.07;;;10.30;99.90;;;;;;4931731;29;20652;-72
2022/04/26 08:01:35;;;;;;;22.77;21.33;;;10.40;99.90;;;;;;4931796;29;20195;-73
2022/04/26 08:04:01;;;;;;;19.03;17.60;;;10.50;99.90;;;;;;4931631;29;20871;-72
2022/04/26 08:06:27;;;;;;;19.80;18.47;;;10.60;99.90;;;;;;4916926;29;20209;-73
2022/04/26 08:08:54;;;;;;;20.00;18.60;;;10.50;99.90;;;;;;4916693;29;20179;-73
2022/04/26 08:11:21;;;;;;;52.27;49.03;;;10.50;99.90;;;;;;4917301;29;20179;-72
2022/04/26 08:13:47;;;;;;;87.73;82.53;;;10.60;99.90;;;;;;4931957;29;20221;-73
2022/04/26 08:16:13;;;;;;;59.53;55.87;;;10.70;99.90;;;;;;4917793;29;20285;-73
2022/04/26 08:18:38;;;;;;;33.17;31.03;;;10.70;99.90;;;;;;4917699;29;20183;-73
2022/04/26 08:21:08;;;;;;;21.73;20.23;;;10.70;99.90;;;;;;4931106;29;20187;-72
2022/04/26 08:27:22;;;;;;;21.43;19.87;;;10.70;99.90;;;;;;4916633;29;20214;-72
2022/04/26 08:29:07;;;;;;;16.73;15.20;;;10.80;99.90;;;;;;4900565;29;20187;-73
2022/04/26 08:31:33;;;;;;;19.03;17.47;;;10.90;99.90;;;;;;4896318;29;20191;-73
2022/04/26 08:33:59;;;;;;;26.80;25.07;;;10.90;99.90;;;;;;4896213;29;20244;-73
2022/04/26 08:36:25;;;;;;;23.97;22.00;;;11.00;99.90;;;;;;4897434;29;20199;-73
2022/04/26 08:38:51;;;;;;;18.97;17.57;;;11.10;99.90;;;;;;4895858;29;20282;-73
2022/04/26 08:41:17;;;;;;;24.20;22.50;;;11.10;99.90;;;;;;4897571;29;20192;-73
2022/04/26 08:43:42;;;;;;;16.03;14.67;;;11.10;99.90;;;;;;4896925;29;20215;-73
2022/04/26 08:46:08;;;;;;;19.37;17.80;;;11.10;99.90;;;;;;4906823;29;20181;-73
2022/04/26 08:51:20;;;;;;;20.67;19.07;;;11.00;99.90;;;;;;4916349;29;20230;-73
2022/04/26 08:53:46;;;;;;;25.00;23.13;;;11.00;99.90;;;;;;4919520;29;20203;-72
2022/04/26 08:56:12;;;;;;;25.13;23.17;;;11.00;99.90;;;;;;4929616;29;20603;-72
2022/04/26 08:58:39;;;;;;;23.10;21.20;;;11.00;99.90;;;;;;4921097;29;20222;-73
2022/04/26 09:01:12;;;;;;;64.07;59.73;;;11.10;99.90;;;;;;4919911;29;20190;-72
2022/04/26 09:03:54;;;;;;;45.77;42.47;;;11.20;99.90;;;;;;4919297;29;20603;-73
2022/04/26 09:06:41;;;;;;;28.33;26.10;;;11.40;99.90;;;;;;4915635;29;20194;-73
2022/04/26 09:09:10;;;;;;;17.90;16.20;;;11.60;99.90;;;;;;4915552;29;20187;-73
2022/04/26 09:11:37;;;;;;;19.20;17.50;;;11.60;99.90;;;;;;4914553;29;20730;-75
2022/04/26 09:16:32;;;;;;;32.27;29.97;;;12.10;99.90;;;;;;4921019;29;20230;-80
2022/04/26 09:19:00;;;;;;;485.53;453.27;;;12.50;99.90;;;;;;4947148;29;20224;-83
2022/04/26 09:21:29;;;;;;;25.13;23.07;;;12.80;99.90;;;;;;4926773;29;20211;-78
2022/04/26 09:24:04;;;;;;;24.07;22.00;;;13.00;99.90;;;;;;4920906;29;20223;-78
2022/04/26 09:26:37;;;;;;;16.80;15.20;;;13.10;99.90;;;;;;4918360;29;20217;-76
2022/04/26 09:29:05;;;;;;;16.30;14.80;;;13.00;99.90;;;;;;4920135;29;20236;-76
2022/04/26 09:31:33;;;;;;;17.27;15.87;;;13.00;99.90;;;;;;4919338;29;20200;-77
2022/04/26 09:34:09;;;;;;;16.43;14.97;;;12.90;99.90;;;;;;4917318;29;20562;-77
2022/04/26 09:36:50;;;;;;;17.27;15.77;;;12.90;99.90;;;;;;4917189;29;20187;-77
2022/04/26 09:39:24;;;;;;;17.47;15.90;;;12.80;99.90;;;;;;4917059;29;20199;-76
2022/04/26 09:41:53;;;;;;;19.20;17.47;;;12.90;99.90;;;;;;4917217;29;20238;-75
2022/04/26 09:44:33;;;;;;;16.97;15.47;;;12.90;99.90;;;;;;4915784;29;20249;-77
2022/04/26 09:46:59;;;;;;;17.80;16.30;;;13.10;99.90;;;;;;4915601;29;20241;-77
2022/04/26 09:49:26;;;;;;;19.90;17.60;;;13.30;99.90;;;;;;4921037;29;20187;-75
2022/04/26 09:51:58;;;;;;;19.43;17.77;;;13.50;99.90;;;;;;4921864;29;20191;-77
2022/04/26 09:54:24;;;;;;;20.87;18.90;;;13.70;99.90;;;;;;4915327;29;20211;-77
2022/04/26 09:56:50;;;;;;;18.27;16.67;;;13.70;99.90;;;;;;4925875;29;20213;-77
2022/04/26 09:59:29;;;;;;;18.57;16.83;;;13.80;99.90;;;;;;4918782;29;20225;-77
2022/04/26 10:01:57;;;;;;;16.23;14.63;;;14.00;99.90;;;;;;4916259;29;20187;-77
2022/04/26 10:04:26;;;;;;;17.50;15.83;;;14.20;99.90;;;;;;4925213;29;20256;-76
2022/04/26 10:06:58;;;;;;;17.77;16.37;;;14.50;99.90;;;;;;4926409;29;20187;-76
2022/04/26 10:09:25;;;;;;;25.93;23.93;;;14.60;99.90;;;;;;4931247;29;20194;-77
2022/04/26 10:11:56;;;;;;;22.80;20.90;;;14.80;99.90;;;;;;4928221;29;20274;-76
2022/04/26 10:14:23;;;;;;;21.90;20.30;;;14.90;99.90;;;;;;4923226;29;20195;-76
2022/04/26 10:16:50;;;;;;;20.20;18.30;;;15.10;99.90;;;;;;4918395;29;20202;-77
2022/04/26 10:19:16;;;;;;;15.63;14.03;;;15.60;99.90;;;;;;4916835;29;20366;-76
2022/04/26 10:21:46;;;;;;;18.20;16.60;;;15.70;99.90;;;;;;4916637;29;20183;-77
2022/04/26 10:24:20;;;;;;;25.53;23.43;;;15.90;99.90;;;;;;4917889;29;20215;-77
2022/04/26 10:26:47;;;;;;;22.33;20.83;;;16.00;99.90;;;;;;4917315;29;20213;-76
2022/04/26 10:29:16;;;;;;;22.43;20.73;;;15.90;99.90;;;;;;4917399;29;20271;-77
2022/04/26 10:31:55;;;;;;;18.37;16.70;;;15.70;99.90;;;;;;4918130;29;20686;-78
2022/04/26 10:34:23;;;;;;;18.00;16.60;;;15.80;99.90;;;;;;4916393;29;20183;-76
2022/04/26 10:36:52;;;;;;;12.43;11.23;;;16.20;99.90;;;;;;4910440;29;20660;-75
2022/04/26 10:39:24;;;;;;;12.07;11.07;;;16.50;99.90;;;;;;4910248;29;20244;-75
2022/04/26 10:41:51;;;;;;;11.87;10.77;;;16.80;99.90;;;;;;4906306;29;20219;-75
2022/04/26 10:44:17;;;;;;;30.47;28.60;;;17.50;99.90;;;;;;4913433;29;20210;-75
2022/04/26 10:46:44;;;;;;;31.23;29.23;;;17.50;99.90;;;;;;4917256;29;20256;-76
2022/04/26 10:49:24;;;;;;;24.73;23.10;;;17.50;99.90;;;;;;4917787;29;20189;-75
2022/04/26 10:51:57;;;;;;;26.70;24.67;;;18.10;99.90;;;;;;4917171;29;20261;-75
2022/04/26 10:54:45;;;;;;;16.00;14.90;;;18.80;99.90;;;;;;4917876;29;20215;-75
2022/04/26 10:57:11;;;;;;;17.87;16.67;;;19.90;99.90;;;;;;4917912;29;20246;-75
2022/04/26 11:00:01;;;;;;;12.13;11.23;;;19.70;99.90;;;;;;4916697;29;20674;-73
2022/04/26 11:02:36;;;;;;;12.07;11.27;;;20.20;99.90;;;;;;4918220;29;20864;-74
2022/04/26 11:05:11;;;;;;;11.53;10.63;;;20.70;99.90;;;;;;4916486;29;20203;-74
2022/04/26 11:07:42;;;;;;;11.73;10.70;;;20.70;99.90;;;;;;4916613;29;20187;-74
2022/04/26 11:10:13;;;;;;;11.77;10.97;;;20.30;99.90;;;;;;4917801;29;20183;-74
2022/04/26 11:12:40;;;;;;;10.73;9.87;;;20.70;99.90;;;;;;4917586;29;20191;-74
2022/04/26 11:15:08;;;;;;;8.73;7.93;;;21.20;99.90;;;;;;4916055;29;20222;-74
2022/04/26 11:17:35;;;;;;;11.17;8.47;;;21.00;99.90;;;;;;4917349;29;20278;-75
2022/04/26 11:20:03;;;;;;;8.50;7.93;;;20.10;99.90;;;;;;4916109;29;20190;-76
2022/04/26 11:22:29;;;;;;;8.80;8.10;;;20.00;99.90;;;;;;4917552;29;20214;-74
2022/04/26 11:28:09;;;;;;;7.10;6.40;;;21.20;99.90;;;;;;4916900;29;20258;-74
2022/04/26 11:30:39;;;;;;;6.13;5.13;;;21.50;94.00;;;;;;4916359;29;20183;-74
2022/04/26 11:33:11;;;;;;;6.22;5.55;;;21.60;90.00;;;;;;4917683;29;20278;-74
2022/04/26 11:35:39;;;;;;;8.13;7.35;;;21.70;89.20;;;;;;4916731;29;20210;-74
2022/04/26 11:38:05;;;;;;;9.70;8.97;;;21.40;90.50;;;;;;4916936;29;20183;-73
2022/04/26 11:40:34;;;;;;;11.97;11.03;;;21.30;88.20;;;;;;4917707;29;20205;-74
2022/04/26 11:43:06;;;;;;;12.27;11.33;;;21.90;90.10;;;;;;4918071;29;20211;-74
2022/04/26 11:45:34;;;;;;;8.07;7.38;;;22.30;88.30;;;;;;4918932;29;20235;-73
2022/04/26 11:48:00;;;;;;;8.93;8.13;;;21.60;83.30;;;;;;4918438;29;20183;-73
2022/04/26 11:50:28;;;;;;;14.20;13.13;;;20.60;83.40;;;;;;4918169;29;20215;-73
2022/04/26 11:53:11;;;;;;;7.67;7.00;;;19.50;90.50;;;;;;4930297;29;20175;-74
2022/04/26 11:55:42;;;;;;;7.63;7.13;;;18.80;92.60;;;;;;4919796;29;20254;-74
2022/04/26 11:58:09;;;;;;;7.67;7.07;;;18.00;94.50;;;;;;4919985;29;20749;-74
2022/04/26 12:00:36;;;;;;;11.47;10.60;;;18.00;94.80;;;;;;4918137;29;20671;-73
2022/04/26 12:03:03;;;;;;;11.43;10.63;;;18.20;97.00;;;;;;4918849;29;20726;-75
2022/04/26 12:05:33;;;;;;;22.20;20.73;;;16.30;98.90;;;;;;4918174;29;20328;-75
2022/04/26 12:07:59;;;;;;;51.10;48.33;;;15.20;99.90;;;;;;4917471;29;20266;-76
2022/04/26 12:10:33;;;;;;;20.77;19.47;;;14.50;99.90;;;;;;4916363;29;20187;-77
2022/04/26 12:13:05;;;;;;;9.40;8.60;;;14.10;99.90;;;;;;4917019;29;20190;-76
2022/04/26 12:15:36;;;;;;;9.27;8.47;;;13.80;99.90;;;;;;4916670;29;20580;-77
2022/04/26 12:18:10;;;;;;;11.53;10.53;;;13.50;99.90;;;;;;4916649;29;20190;-76
2022/04/26 12:20:37;;;;;;;11.40;10.60;;;13.00;99.90;;;;;;4916033;29;20190;-75
2022/04/26 12:23:07;;;;;;;29.33;27.53;;;12.70;99.90;;;;;;4917336;29;20557;-77
2022/04/26 12:25:34;;;;;;;24.57;23.03;;;12.60;99.90;;;;;;4916121;29;20209;-76
2022/04/26 12:28:08;;;;;;;14.43;13.17;;;12.70;99.90;;;;;;4915628;29;20190;-77
2022/04/26 12:30:37;;;;;;;23.93;22.53;;;13.00;99.90;;;;;;4917342;29;20191;-76
2022/04/26 12:33:05;;;;;;;13.90;12.70;;;13.30;99.90;;;;;;4919859;29;20186;-78
2022/04/26 12:35:32;;;;;;;10.90;9.90;;;13.40;99.90;;;;;;4921447;29;20226;-77
2022/04/26 12:38:07;;;;;;;11.27;10.00;;;13.40;99.90;;;;;;4917105;29;20189;-78
2022/04/26 12:40:33;;;;;;;8.90;8.07;;;13.50;99.90;;;;;;4917585;29;20262;-76
2022/04/26 12:42:59;;;;;;;8.63;7.83;;;13.60;99.90;;;;;;4917710;29;20778;-77
2022/04/26 12:45:25;;;;;;;7.10;6.50;;;13.70;99.90;;;;;;4916620;29;20199;-77
2022/04/26 12:51:11;;;;;;;12.20;11.50;;;13.60;99.90;;;;;;4916117;29;20300;-77
2022/04/26 12:53:37;;;;;;;12.93;12.13;;;13.40;99.90;;;;;;4915307;29;20217;-77
2022/04/26 12:56:08;;;;;;;13.13;12.37;;;13.50;99.90;;;;;;4914461;29;20203;-77
2022/04/26 12:58:36;;;;;;;11.57;10.50;;;13.80;99.90;;;;;;4915710;29;20567;-77
2022/04/26 13:01:03;;;;;;;6.80;6.40;;;14.10;99.90;;;;;;4914946;29;20183;-77
2022/04/26 13:03:28;;;;;;;8.27;7.77;;;14.30;99.90;;;;;;4915447;29;20211;-77
2022/04/26 13:06:15;;;;;;;6.57;6.07;;;14.20;99.90;;;;;;4914840;29;20257;-77
2022/04/26 13:08:46;;;;;;;7.50;7.07;;;14.10;99.90;;;;;;4915042;29;20187;-77
2022/04/26 13:11:12;;;;;;;9.13;8.53;;;14.20;99.90;;;;;;4914491;29;20723;-77
2022/04/26 13:13:39;;;;;;;10.07;9.40;;;14.10;99.90;;;;;;4914444;29;20196;-77
2022/04/26 13:16:05;;;;;;;10.17;9.37;;;13.90;99.90;;;;;;4914501;29;20641;-77
2022/04/26 13:18:31;;;;;;;6.63;6.20;;;13.70;99.90;;;;;;4914761;29;20182;-77
2022/04/26 13:20:58;;;;;;;11.70;10.70;;;13.40;99.90;;;;;;4910156;29;20194;-77
2022/04/26 13:23:25;;;;;;;10.90;9.93;;;13.20;99.90;;;;;;4917676;29;20297;-77
2022/04/26 13:25:51;;;;;;;9.33;8.63;;;13.00;99.90;;;;;;4915154;29;20213;-77
2022/04/26 13:28:17;;;;;;;6.00;5.60;;;12.60;99.90;;;;;;4915636;29;20190;-77
2022/04/26 13:30:43;;;;;;;9.90;9.20;;;12.40;99.90;;;;;;4918784;29;20190;-77
2022/04/26 13:33:09;;;;;;;9.73;9.13;;;12.30;99.90;;;;;;4921372;29;20226;-77
2022/04/26 13:35:37;;;;;;;5.80;5.40;;;12.30;99.90;;;;;;4933664;29;20198;-77
2022/04/26 13:38:21;;;;;;;7.17;6.77;;;12.20;99.90;;;;;;4918169;29;20189;-77
2022/04/26 13:40:48;;;;;;;17.33;16.43;;;12.20;99.90;;;;;;4916372;29;20197;-77
2022/04/26 13:43:14;;;;;;;21.13;20.07;;;12.20;99.90;;;;;;4917294;29;20297;-77
2022/04/26 13:45:39;;;;;;;18.10;17.20;;;12.30;99.90;;;;;;4916361;29;20210;-76
2022/04/26 13:48:11;;;;;;;15.67;14.80;;;12.30;99.90;;;;;;4914390;29;20268;-77
2022/04/26 13:50:38;;;;;;;14.57;13.87;;;12.30;99.90;;;;;;4916519;29;20561;-75
2022/04/26 13:53:04;;;;;;;20.67;19.40;;;12.30;99.90;;;;;;4916320;29;20190;-77
2022/04/26 13:55:30;;;;;;;14.17;13.33;;;12.30;99.90;;;;;;4915173;29;20257;-76
2022/04/26 13:57:55;;;;;;;27.30;25.37;;;12.20;99.90;;;;;;4915337;29;20579;-77
2022/04/26 14:00:22;;;;;;;32.97;31.20;;;12.10;99.90;;;;;;4918614;29;20196;-77
2022/04/26 14:02:48;;;;;;;32.50;30.50;;;12.10;99.90;;;;;;4915928;29;20210;-77
2022/04/26 14:05:18;;;;;;;25.50;24.00;;;12.50;99.90;;;;;;4914348;29;20207;-77
2022/04/26 14:07:46;;;;;;;25.57;24.07;;;13.00;99.90;;;;;;4914959;29;20191;-77
2022/04/26 14:10:13;;;;;;;39.23;37.23;;;14.00;99.90;;;;;;4914971;29;20183;-77
2022/04/26 14:12:39;;;;;;;6.40;5.97;;;16.00;99.90;;;;;;4915001;29;20273;-75
2022/04/26 14:23:19;;;;;;;5.83;5.40;;;20.90;90.40;;;;;;4924192;29;20225;-76
2022/04/26 14:25:45;;;;;;;8.00;7.20;;;20.10;91.00;;;;;;4927651;29;20734;-77
2022/04/26 14:28:11;;;;;;;7.13;6.50;;;19.60;90.50;;;;;;4920619;29;20237;-78
2022/04/26 14:30:37;;;;;;;6.63;6.03;;;19.20;92.20;;;;;;4921288;29;20182;-78
2022/04/26 14:33:02;;;;;;;8.27;7.57;;;20.10;92.90;;;;;;4919778;29;20568;-78
2022/04/26 14:35:29;;;;;;;4.60;4.30;;;20.70;92.00;;;;;;4920405;29;20207;-77
2022/04/26 14:37:56;;;;;;;4.13;3.93;;;21.10;87.20;;;;;;4917678;29;20190;-77
2022/04/26 14:40:22;;;;;;;4.73;4.53;;;21.20;78.60;;;;;;4919057;29;20187;-78
2022/04/26 14:42:48;;;;;;;6.37;6.00;;;20.10;79.10;;;;;;4917377;29;20215;-76
2022/04/26 14:45:13;;;;;;;5.20;4.90;;;19.10;88.80;;;;;;4917986;29;20606;-77
2022/04/26 14:47:40;;;;;;;5.47;5.10;;;18.30;89.60;;;;;;4927409;29;20975;-77
2022/04/26 14:50:08;;;;;;;9.87;9.13;;;17.00;91.10;;;;;;4933711;29;20211;-76
2022/04/26 14:52:34;;;;;;;8.47;8.03;;;16.30;93.90;;;;;;4923087;29;20213;-77
2022/04/26 14:55:01;;;;;;;9.70;9.10;;;16.40;96.50;;;;;;4919876;29;20217;-76
2022/04/26 14:57:28;;;;;;;5.67;5.30;;;18.30;93.90;;;;;;4931148;29;20190;-77
2022/04/26 14:59:53;;;;;;;4.70;4.40;;;20.10;86.10;;;;;;4927992;29;20183;-76
2022/04/26 15:02:19;;;;;;;7.30;6.90;;;20.10;83.50;;;;;;4919652;29;20184;-77
2022/04/26 15:04:47;;;;;;;8.70;8.27;;;20.40;80.20;;;;;;4917040;29;20675;-77
2022/04/26 15:07:13;;;;;;;8.00;7.53;;;20.70;79.90;;;;;;4917717;29;20179;-77
2022/04/26 15:09:42;;;;;;;5.80;5.43;;;21.10;80.20;;;;;;4918203;29;20540;-77
2022/04/26 15:17:44;;;;;;;6.67;6.17;;;19.60;77.80;;;;;;4903327;29;20192;-69
2022/04/26 15:20:11;;;;;;;11.13;10.43;;;18.60;77.80;;;;;;4917803;29;20226;-74
2022/04/26 15:22:38;;;;;;;8.00;7.50;;;17.40;83.80;;;;;;4925792;29;20207;-72
2022/04/26 15:25:06;;;;;;;7.33;6.73;;;16.50;86.60;;;;;;4934946;29;20222;-72
2022/04/26 15:27:38;;;;;;;11.23;10.53;;;15.80;90.70;;;;;;4934852;29;20189;-72
2022/04/26 15:30:06;;;;;;;6.57;5.97;;;16.60;90.80;;;;;;4930326;29;20748;-72
2022/04/26 15:32:32;;;;;;;6.37;5.97;;;17.90;85.60;;;;;;4918455;29;20559;-72
2022/04/26 15:34:58;;;;;;;6.03;5.63;;;18.90;82.30;;;;;;4916460;29;20203;-72
2022/04/26 15:37:27;;;;;;;11.03;10.23;;;19.60;79.50;;;;;;4917098;29;20186;-72
2022/04/26 15:39:54;;;;;;;10.47;9.87;;;19.70;76.60;;;;;;4917521;29;20183;-72
2022/04/26 15:42:21;;;;;;;6.63;6.33;;;18.80;78.60;;;;;;4917407;29;20707;-72
2022/04/26 15:44:48;;;;;;;5.33;5.03;;;17.60;85.20;;;;;;4916112;29;20230;-72
2022/04/26 15:47:14;;;;;;;5.10;4.70;;;17.40;89.10;;;;;;4916991;29;20187;-72
2022/04/26 15:49:40;;;;;;;4.53;4.33;;;18.50;83.30;;;;;;4915988;29;20183;-72
2022/04/26 15:52:09;;;;;;;4.77;4.47;;;18.50;85.40;;;;;;4915995;29;20176;-72
2022/04/26 15:54:36;;;;;;;4.10;3.90;;;17.80;84.90;;;;;;4917222;29;20266;-72
2022/04/26 15:57:03;;;;;;;6.97;6.67;;;16.50;88.10;;;;;;4919287;29;20286;-72
2022/04/26 15:59:29;;;;;;;10.60;10.10;;;15.70;91.10;;;;;;4919032;29;20179;-72
2022/04/26 16:01:55;;;;;;;6.13;5.73;;;15.10;93.10;;;;;;4917044;29;20186;-72
2022/04/26 16:04:21;;;;;;;6.63;6.27;;;14.90;94.50;;;;;;4916994;29;20211;-72
2022/04/26 16:06:48;;;;;;;11.87;11.17;;;14.70;95.80;;;;;;4914473;29;20912;-71
2022/04/26 16:20:29;;;;;;;11.87;10.97;;;14.50;99.90;;;;;;4897610;29;20187;-72
2022/04/26 16:22:59;;;;;;;10.83;10.17;;;14.80;98.10;;;;;;4897999;29;20767;-74
2022/04/26 16:25:26;;;;;;;11.30;10.60;;;16.00;96.10;;;;;;4896195;29;20234;-72
2022/04/26 16:27:51;;;;;;;6.30;5.90;;;17.00;93.80;;;;;;4897432;29;20224;-73
2022/04/26 16:30:17;;;;;;;5.77;5.47;;;16.70;94.30;;;;;;4897544;29;20188;-72
2022/04/26 16:32:43;;;;;;;8.93;8.43;;;16.80;93.80;;;;;;4897415;29;20191;-76
2022/04/26 16:35:11;;;;;;;8.80;8.20;;;16.70;91.60;;;;;;4897565;29;20612;-72
2022/04/26 16:37:38;;;;;;;6.20;5.80;;;15.50;93.40;;;;;;4904329;29;20198;-72
2022/04/26 16:40:04;;;;;;;9.63;9.13;;;14.60;95.20;;;;;;4915074;29;20202;-71
2022/04/26 16:42:30;;;;;;;16.23;15.33;;;14.00;99.90;;;;;;4913784;29;20190;-72
2022/04/26 16:44:56;;;;;;;29.27;27.80;;;13.50;99.90;;;;;;4914885;29;20282;-73
2022/04/26 16:47:22;;;;;;;7.27;6.33;;;13.10;99.90;;;;;;4912371;29;20183;-72
2022/04/26 16:49:48;;;;;;;5.87;5.47;;;12.60;99.90;;;;;;4906504;29;20194;-72
2022/04/26 16:52:14;;;;;;;6.00;5.60;;;12.30;99.90;;;;;;4895984;29;20181;-72
2022/04/26 16:54:39;;;;;;;6.70;6.30;;;12.20;99.90;;;;;;4895603;29;20236;-73